sensor_id;sensor_type;location;lat;lon;timestamp;pressure;altitude;pressure_sealevel;temperature;humidity
13709;BME280;54933;51.908;7.730;2023-06-10T00:00:42;100896.16;;;24.57;71.58
13709;BME280;54933;51.908;7.730;2023-06-10T00:03:08;100894.25;;;24.58;71.65
13709;BME280;54933;51.908;7.730;2023-06-10T00:05:34;100897.81;;;24.58;71.66
13709;BME280;54933;51.908;7.730;2023-06-10T00:08:00;100897.81;;;24.58;71.48
13709;BME280;54933;51.908;7.730;2023-06-10T00:10:26;100893.19;;;24.59;71.44
13709;BME280;54933;51.908;7.730;2023-06-10T00:12:52;100895.91;;;24.59;71.54
13709;BME280;54933;51.908;7.730;2023-06-10T00:15:17;100895.09;;;24.58;71.52
13709;BME280;54933;51.908;7.730;2023-06-10T00:17:42;100892.38;;;24.58;71.52
13709;BME280;54933;51.908;7.730;2023-06-10T00:20:08;100899.47;;;24.59;71.38
13709;BME280;54933;51.908;7.730;2023-06-10T00:22:37;100896.75;;;24.59;71.32
13709;BME280;54933;51.908;7.730;2023-06-10T00:25:04;100901.34;;;24.59;71.20
13709;BME280;54933;51.908;7.730;2023-06-10T00:27:29;100898.63;;;24.59;71.43
13709;BME280;54933;51.908;7.730;2023-06-10T00:30:01;100898.63;;;24.59;71.41
13709;BME280;54933;51.908;7.730;2023-06-10T00:32:26;100887.75;;;24.59;71.39
13709;BME280;54933;51.908;7.730;2023-06-10T00:34:51;100890.25;;;24.60;71.33
13709;BME280;54933;51.908;7.730;2023-06-10T00:37:17;100896.75;;;24.59;71.23
13709;BME280;54933;51.908;7.730;2023-06-10T00:39:42;100894.84;;;24.60;71.38
13709;BME280;54933;51.908;7.730;2023-06-10T00:42:07;100901.34;;;24.59;71.31
13709;BME280;54933;51.908;7.730;2023-06-10T00:44:35;100903.00;;;24.60;71.21
13709;BME280;54933;51.908;7.730;2023-06-10T00:47:01;100900.28;;;24.60;71.48
13709;BME280;54933;51.908;7.730;2023-06-10T00:49:27;100900.28;;;24.60;71.33
13709;BME280;54933;51.908;7.730;2023-06-10T00:51:52;100900.28;;;24.60;71.23
13709;BME280;54933;51.908;7.730;2023-06-10T00:54:18;100906.56;;;24.60;71.31
13709;BME280;54933;51.908;7.730;2023-06-10T00:56:44;100897.56;;;24.60;71.18
13709;BME280;54933;51.908;7.730;2023-06-10T00:59:10;100906.31;;;24.62;71.25
13709;BME280;54933;51.908;7.730;2023-06-10T01:01:36;100902.78;;;24.61;71.42
13709;BME280;54933;51.908;7.730;2023-06-10T01:04:02;100903.59;;;24.62;71.36
13709;BME280;54933;51.908;7.730;2023-06-10T01:09:18;100901.94;;;24.61;71.20
13709;BME280;54933;51.908;7.730;2023-06-10T01:11:58;100903.59;;;24.62;71.37
13709;BME280;54933;51.908;7.730;2023-06-10T01:14:28;100903.59;;;24.62;71.31
13709;BME280;54933;51.908;7.730;2023-06-10T01:16:54;100911.75;;;24.62;71.48
13709;BME280;54933;51.908;7.730;2023-06-10T01:19:19;100909.84;;;24.62;71.28
13709;BME280;54933;51.908;7.730;2023-06-10T01:21:45;100914.47;;;24.62;71.30
13709;BME280;54933;51.908;7.730;2023-06-10T01:24:14;100909.03;;;24.62;71.26
13709;BME280;54933;51.908;7.730;2023-06-10T01:26:43;100912.56;;;24.62;71.29
13709;BME280;54933;51.908;7.730;2023-06-10T01:29:28;100915.28;;;24.62;71.40
13709;BME280;54933;51.908;7.730;2023-06-10T01:32:08;100915.28;;;24.62;71.39
13709;BME280;54933;51.908;7.730;2023-06-10T01:34:37;100913.41;;;24.63;71.10
13709;BME280;54933;51.908;7.730;2023-06-10T01:37:04;100915.28;;;24.62;71.23
13709;BME280;54933;51.908;7.730;2023-06-10T01:39:31;100924.28;;;24.63;71.48
13709;BME280;54933;51.908;7.730;2023-06-10T01:41:57;100921.56;;;24.63;70.98
13709;BME280;54933;51.908;7.730;2023-06-10T01:44:23;100921.56;;;24.63;71.33
13709;BME280;54933;51.908;7.730;2023-06-10T01:46:48;100921.56;;;24.63;71.32
13709;BME280;54933;51.908;7.730;2023-06-10T01:49:14;100916.13;;;24.63;71.02
13709;BME280;54933;51.908;7.730;2023-06-10T01:51:39;100914.47;;;24.62;71.41
13709;BME280;54933;51.908;7.730;2023-06-10T01:54:04;100921.56;;;24.63;71.33
13709;BME280;54933;51.908;7.730;2023-06-10T01:56:30;100910.69;;;24.63;71.38
13709;BME280;54933;51.908;7.730;2023-06-10T01:58:55;100922.38;;;24.63;71.64
13709;BME280;54933;51.908;7.730;2023-06-10T02:01:27;100923.19;;;24.64;71.27
13709;BME280;54933;51.908;7.730;2023-06-10T02:03:52;100921.56;;;24.63;71.26
13709;BME280;54933;51.908;7.730;2023-06-10T02:06:18;100927.00;;;24.63;71.34
13709;BME280;54933;51.908;7.730;2023-06-10T02:08:43;100910.69;;;24.63;71.12
13709;BME280;54933;51.908;7.730;2023-06-10T02:11:08;100921.31;;;24.64;71.21
13709;BME280;54933;51.908;7.730;2023-06-10T02:13:34;100918.84;;;24.63;71.29
13709;BME280;54933;51.908;7.730;2023-06-10T02:15:59;100921.56;;;24.63;71.19
13709;BME280;54933;51.908;7.730;2023-06-10T02:18:25;100924.03;;;24.64;71.21
13709;BME280;54933;51.908;7.730;2023-06-10T02:20:52;100931.34;;;24.64;71.16
13709;BME280;54933;51.908;7.730;2023-06-10T02:23:17;100937.84;;;24.63;71.44
13709;BME280;54933;51.908;7.730;2023-06-10T02:25:42;100927.81;;;24.63;71.28
13709;BME280;54933;51.908;7.730;2023-06-10T02:28:07;100932.44;;;24.63;71.13
13709;BME280;54933;51.908;7.730;2023-06-10T02:30:33;100931.34;;;24.64;71.29
13709;BME280;54933;51.908;7.730;2023-06-10T02:32:58;100934.06;;;24.64;71.37
13709;BME280;54933;51.908;7.730;2023-06-10T02:35:24;100944.94;;;24.64;71.13
13709;BME280;54933;51.908;7.730;2023-06-10T02:37:49;100947.66;;;24.64;71.09
13709;BME280;54933;51.908;7.730;2023-06-10T02:40:15;100939.50;;;24.64;71.23
13709;BME280;54933;51.908;7.730;2023-06-10T02:42:41;100933.25;;;24.63;70.99
13709;BME280;54933;51.908;7.730;2023-06-10T02:45:06;100944.94;;;24.64;71.09
13709;BME280;54933;51.908;7.730;2023-06-10T02:47:32;100944.94;;;24.64;70.95
13709;BME280;54933;51.908;7.730;2023-06-10T02:49:57;100939.50;;;24.64;70.93
13709;BME280;54933;51.908;7.730;2023-06-10T02:52:22;100938.69;;;24.63;71.07
13709;BME280;54933;51.908;7.730;2023-06-10T02:54:48;100941.41;;;24.63;70.94
13709;BME280;54933;51.908;7.730;2023-06-10T02:57:13;100947.66;;;24.64;71.04
13709;BME280;54933;51.908;7.730;2023-06-10T02:59:39;100952.03;;;24.65;70.96
13709;BME280;54933;51.908;7.730;2023-06-10T03:02:05;100942.22;;;24.64;71.05
13709;BME280;54933;51.908;7.730;2023-06-10T03:04:30;100935.97;;;24.63;70.95
13709;BME280;54933;51.908;7.730;2023-06-10T03:06:56;100934.06;;;24.64;71.06
13709;BME280;54933;51.908;7.730;2023-06-10T03:09:22;100935.16;;;24.63;70.89
13709;BME280;54933;51.908;7.730;2023-06-10T03:11:47;100933.03;;;24.65;71.25
13709;BME280;54933;51.908;7.730;2023-06-10T03:14:12;100939.50;;;24.64;71.00
13709;BME280;54933;51.908;7.730;2023-06-10T03:16:38;100932.19;;;24.64;70.96
13709;BME280;54933;51.908;7.730;2023-06-10T03:19:07;100934.91;;;24.64;70.94
13709;BME280;54933;51.908;7.730;2023-06-10T03:21:36;100941.19;;;24.65;70.97
13709;BME280;54933;51.908;7.730;2023-06-10T03:24:02;100933.03;;;24.65;70.85
13709;BME280;54933;51.908;7.730;2023-06-10T03:26:28;100941.19;;;24.65;70.87
13709;BME280;54933;51.908;7.730;2023-06-10T03:28:53;100941.19;;;24.65;70.95
13709;BME280;54933;51.908;7.730;2023-06-10T03:31:18;100943.88;;;24.65;71.02
13709;BME280;54933;51.908;7.730;2023-06-10T03:33:44;100946.59;;;24.65;70.97
13709;BME280;54933;51.908;7.730;2023-06-10T03:36:09;100952.84;;;24.65;70.95
13709;BME280;54933;51.908;7.730;2023-06-10T03:38:34;100952.84;;;24.65;70.92
13709;BME280;54933;51.908;7.730;2023-06-10T03:41:00;100948.25;;;24.66;70.94
13709;BME280;54933;51.908;7.730;2023-06-10T03:43:26;100951.22;;;24.64;70.92
13709;BME280;54933;51.908;7.730;2023-06-10T03:45:52;100954.75;;;24.65;70.81
13709;BME280;54933;51.908;7.730;2023-06-10T03:48:18;100958.28;;;24.65;70.92
13709;BME280;54933;51.908;7.730;2023-06-10T03:50:43;100959.13;;;24.66;70.95
13709;BME280;54933;51.908;7.730;2023-06-10T03:53:08;100957.25;;;24.66;70.99
13709;BME280;54933;51.908;7.730;2023-06-10T03:55:33;100947.41;;;24.65;70.82
13709;BME280;54933;51.908;7.730;2023-06-10T03:57:59;100954.53;;;24.66;71.09
13709;BME280;54933;51.908;7.730;2023-06-10T04:00:24;100957.47;;;24.65;70.92
13709;BME280;54933;51.908;7.730;2023-06-10T04:02:49;100959.13;;;24.66;70.85
13709;BME280;54933;51.908;7.730;2023-06-10T04:05:18;100959.13;;;24.66;70.92
13709;BME280;54933;51.908;7.730;2023-06-10T04:07:45;100959.97;;;24.66;70.93
13709;BME280;54933;51.908;7.730;2023-06-10T04:10:11;100948.25;;;24.66;70.94
13709;BME280;54933;51.908;7.730;2023-06-10T04:12:37;100958.28;;;24.65;70.70
13709;BME280;54933;51.908;7.730;2023-06-10T04:15:03;100955.34;;;24.67;70.73
13709;BME280;54933;51.908;7.730;2023-06-10T04:17:29;100955.34;;;24.67;70.72
13709;BME280;54933;51.908;7.730;2023-06-10T04:19:54;100959.13;;;24.66;71.07
13709;BME280;54933;51.908;7.730;2023-06-10T04:22:20;100945.53;;;24.66;70.76
13709;BME280;54933;51.908;7.730;2023-06-10T04:24:45;100949.09;;;24.66;70.83
13709;BME280;54933;51.908;7.730;2023-06-10T04:27:11;100953.69;;;24.66;70.67
13709;BME280;54933;51.908;7.730;2023-06-10T04:29:36;100955.34;;;24.67;70.82
13709;BME280;54933;51.908;7.730;2023-06-10T04:32:01;100959.13;;;24.66;70.64
13709;BME280;54933;51.908;7.730;2023-06-10T04:34:27;100957.25;;;24.66;70.62
13709;BME280;54933;51.908;7.730;2023-06-10T04:36:52;100961.84;;;24.66;70.60
13709;BME280;54933;51.908;7.730;2023-06-10T04:39:18;100964.56;;;24.66;70.65
13709;BME280;54933;51.908;7.730;2023-06-10T04:41:43;100956.41;;;24.66;70.52
13709;BME280;54933;51.908;7.730;2023-06-10T04:44:09;100955.34;;;24.67;70.63
13709;BME280;54933;51.908;7.730;2023-06-10T04:46:35;100950.97;;;24.66;70.83
13709;BME280;54933;51.908;7.730;2023-06-10T04:49:01;100961.84;;;24.66;70.70
13709;BME280;54933;51.908;7.730;2023-06-10T04:51:26;100965.38;;;24.66;70.48
13709;BME280;54933;51.908;7.730;2023-06-10T04:53:51;100964.56;;;24.66;70.61
13709;BME280;54933;51.908;7.730;2023-06-10T04:56:17;100971.66;;;24.67;70.52
13709;BME280;54933;51.908;7.730;2023-06-10T04:58:42;100966.22;;;24.67;70.53
13709;BME280;54933;51.908;7.730;2023-06-10T05:01:08;100973.53;;;24.66;70.52
13709;BME280;54933;51.908;7.730;2023-06-10T05:03:33;100971.66;;;24.67;70.75
13709;BME280;54933;51.908;7.730;2023-06-10T05:05:58;100973.53;;;24.66;70.65
13709;BME280;54933;51.908;7.730;2023-06-10T05:08:23;100975.44;;;24.66;70.73
13709;BME280;54933;51.908;7.730;2023-06-10T05:10:49;100977.09;;;24.67;70.57
13709;BME280;54933;51.908;7.730;2023-06-10T05:13:14;100970.00;;;24.66;70.56
13709;BME280;54933;51.908;7.730;2023-06-10T05:15:39;100969.38;;;24.64;70.55
13709;BME280;54933;51.908;7.730;2023-06-10T05:18:05;100973.19;;;24.63;70.43
13709;BME280;54933;51.908;7.730;2023-06-10T05:20:30;100974.25;;;24.62;70.41
13709;BME280;54933;51.908;7.730;2023-06-10T05:22:56;100974.25;;;24.62;70.48
13709;BME280;54933;51.908;7.730;2023-06-10T05:25:21;100976.97;;;24.62;70.59
13709;BME280;54933;51.908;7.730;2023-06-10T05:27:47;100978.03;;;24.61;70.38
13709;BME280;54933;51.908;7.730;2023-06-10T05:30:12;100972.59;;;24.61;70.71
13709;BME280;54933;51.908;7.730;2023-06-10T05:32:37;100978.03;;;24.61;70.64
13709;BME280;54933;51.908;7.730;2023-06-10T05:35:03;100982.66;;;24.60;70.73
13709;BME280;54933;51.908;7.730;2023-06-10T05:37:29;100972.59;;;24.61;70.67
13709;BME280;54933;51.908;7.730;2023-06-10T05:39:55;100972.59;;;24.61;70.59
13709;BME280;54933;51.908;7.730;2023-06-10T05:42:20;100975.31;;;24.61;70.84
13709;BME280;54933;51.908;7.730;2023-06-10T05:44:45;100974.50;;;24.60;70.92
13709;BME280;54933;51.908;7.730;2023-06-10T05:47:11;100979.69;;;24.62;70.90
13709;BME280;54933;51.908;7.730;2023-06-10T05:49:36;100987.84;;;24.62;70.79
13709;BME280;54933;51.908;7.730;2023-06-10T05:52:01;100978.03;;;24.61;70.79
13709;BME280;54933;51.908;7.730;2023-06-10T05:54:27;100974.25;;;24.62;71.01
13709;BME280;54933;51.908;7.730;2023-06-10T05:56:52;100976.13;;;24.61;70.82
13709;BME280;54933;51.908;7.730;2023-06-10T05:59:17;100974.25;;;24.62;70.73
13709;BME280;54933;51.908;7.730;2023-06-10T06:01:43;100973.41;;;24.61;70.79
13709;BME280;54933;51.908;7.730;2023-06-10T06:04:08;100974.25;;;24.62;70.67
13709;BME280;54933;51.908;7.730;2023-06-10T06:06:35;100979.69;;;24.62;70.86
13709;BME280;54933;51.908;7.730;2023-06-10T06:09:00;100986.78;;;24.63;70.66
13709;BME280;54933;51.908;7.730;2023-06-10T06:11:25;100975.06;;;24.62;71.00
13709;BME280;54933;51.908;7.730;2023-06-10T06:13:51;100987.59;;;24.63;70.94
13709;BME280;54933;51.908;7.730;2023-06-10T06:16:16;100987.84;;;24.62;70.72
13709;BME280;54933;51.908;7.730;2023-06-10T06:18:43;100985.13;;;24.62;70.59
13709;BME280;54933;51.908;7.730;2023-06-10T06:21:08;100988.88;;;24.61;70.54
13709;BME280;54933;51.908;7.730;2023-06-10T06:23:34;100979.09;;;24.60;70.61
13709;BME280;54933;51.908;7.730;2023-06-10T06:25:59;100983.47;;;24.61;70.79
13709;BME280;54933;51.908;7.730;2023-06-10T06:28:24;100979.09;;;24.60;70.65
13709;BME280;54933;51.908;7.730;2023-06-10T06:30:54;100988.09;;;24.60;70.68
13709;BME280;54933;51.908;7.730;2023-06-10T06:33:20;100990.56;;;24.62;70.58
13709;BME280;54933;51.908;7.730;2023-06-10T06:35:45;100985.38;;;24.60;70.73
13709;BME280;54933;51.908;7.730;2023-06-10T06:38:11;100991.84;;;24.59;70.43
13709;BME280;54933;51.908;7.730;2023-06-10T06:40:36;100991.00;;;24.59;70.56
13709;BME280;54933;51.908;7.730;2023-06-10T06:43:01;100982.28;;;24.57;70.47
13709;BME280;54933;51.908;7.730;2023-06-10T06:45:27;100994.81;;;24.58;70.37
13709;BME280;54933;51.908;7.730;2023-06-10T06:47:52;100989.38;;;24.58;70.51
13709;BME280;54933;51.908;7.730;2023-06-10T06:50:17;100988.53;;;24.57;70.41
13709;BME280;54933;51.908;7.730;2023-06-10T06:52:43;100987.72;;;24.57;70.44
13709;BME280;54933;51.908;7.730;2023-06-10T06:55:08;100987.72;;;24.57;70.44
13709;BME280;54933;51.908;7.730;2023-06-10T06:57:34;100990.44;;;24.57;70.44
13709;BME280;54933;51.908;7.730;2023-06-10T06:59:59;100986.06;;;24.56;70.44
13709;BME280;54933;51.908;7.730;2023-06-10T07:02:25;100993.16;;;24.57;70.18
13709;BME280;54933;51.908;7.730;2023-06-10T07:04:51;100994.81;;;24.58;70.48
13709;BME280;54933;51.908;7.730;2023-06-10T07:07:16;100990.19;;;24.58;70.40
13709;BME280;54933;51.908;7.730;2023-06-10T07:09:41;100992.09;;;24.58;71.01
13709;BME280;54933;51.908;7.730;2023-06-10T07:12:07;100993.97;;;24.57;70.45
13709;BME280;54933;51.908;7.730;2023-06-10T07:14:33;100999.41;;;24.57;70.36
13709;BME280;54933;51.908;7.730;2023-06-10T07:16:58;100993.16;;;24.57;70.43
13709;BME280;54933;51.908;7.730;2023-06-10T07:19:23;100989.38;;;24.58;70.41
13709;BME280;54933;51.908;7.730;2023-06-10T07:21:48;100987.47;;;24.58;70.30
13709;BME280;54933;51.908;7.730;2023-06-10T07:24:14;100992.09;;;24.58;70.50
13709;BME280;54933;51.908;7.730;2023-06-10T07:26:39;100998.13;;;24.60;70.37
13709;BME280;54933;51.908;7.730;2023-06-10T07:29:04;100996.44;;;24.59;70.34
13709;BME280;54933;51.908;7.730;2023-06-10T07:31:30;101001.88;;;24.59;70.33
13709;BME280;54933;51.908;7.730;2023-06-10T07:33:55;100998.13;;;24.60;70.42
13709;BME280;54933;51.908;7.730;2023-06-10T07:36:20;100988.09;;;24.60;70.52
13709;BME280;54933;51.908;7.730;2023-06-10T07:38:46;100989.13;;;24.59;70.51
13709;BME280;54933;51.908;7.730;2023-06-10T07:41:11;100992.69;;;24.60;70.55
13709;BME280;54933;51.908;7.730;2023-06-10T07:43:37;100989.72;;;24.61;70.43
13709;BME280;54933;51.908;7.730;2023-06-10T07:46:03;100983.47;;;24.61;70.24
13709;BME280;54933;51.908;7.730;2023-06-10T07:48:30;100988.88;;;24.61;69.18
13709;BME280;54933;51.908;7.730;2023-06-10T07:50:55;100981.81;;;24.60;68.86
13709;BME280;54933;51.908;7.730;2023-06-10T07:53:21;100985.56;;;24.59;68.87
13709;BME280;54933;51.908;7.730;2023-06-10T07:55:46;100983.94;;;24.58;68.50
13709;BME280;54933;51.908;7.730;2023-06-10T07:58:11;100978.50;;;24.58;68.32
13709;BME280;54933;51.908;7.730;2023-06-10T08:00:36;100985.56;;;24.59;68.33
13709;BME280;54933;51.908;7.730;2023-06-10T08:03:02;100981.22;;;24.58;68.39
13709;BME280;54933;51.908;7.730;2023-06-10T08:05:27;100988.28;;;24.59;68.64
13709;BME280;54933;51.908;7.730;2023-06-10T08:07:53;100986.66;;;24.58;68.63
13709;BME280;54933;51.908;7.730;2023-06-10T08:10:18;100987.72;;;24.57;68.70
13709;BME280;54933;51.908;7.730;2023-06-10T08:12:44;100991.25;;;24.57;68.73
13709;BME280;54933;51.908;7.730;2023-06-10T08:15:09;100994.81;;;24.58;68.50
13709;BME280;54933;51.908;7.730;2023-06-10T08:17:35;100995.63;;;24.58;68.83
13709;BME280;54933;51.908;7.730;2023-06-10T08:20:01;100993.97;;;24.57;68.60
13709;BME280;54933;51.908;7.730;2023-06-10T08:22:27;101000.22;;;24.58;68.78
13709;BME280;54933;51.908;7.730;2023-06-10T08:24:54;101006.50;;;24.58;68.79
13709;BME280;54933;51.908;7.730;2023-06-10T08:27:19;101002.94;;;24.58;68.87
13709;BME280;54933;51.908;7.730;2023-06-10T08:29:44;101002.94;;;24.58;68.95
13709;BME280;54933;51.908;7.730;2023-06-10T08:32:10;100999.41;;;24.57;69.00
13709;BME280;54933;51.908;7.730;2023-06-10T08:34:35;101001.88;;;24.59;69.04
13709;BME280;54933;51.908;7.730;2023-06-10T08:37:01;101009.81;;;24.60;69.12
13709;BME280;54933;51.908;7.730;2023-06-10T08:39:27;101006.28;;;24.60;68.96
13709;BME280;54933;51.908;7.730;2023-06-10T08:44:32;101001.97;;;24.52;68.94
13709;BME280;54933;51.908;7.730;2023-06-10T08:47:14;101003.03;;;24.40;66.60
13709;BME280;54933;51.908;7.730;2023-06-10T08:49:44;100996.16;;;24.26;63.31
13709;BME280;54933;51.908;7.730;2023-06-10T08:52:20;100996.53;;;24.29;61.38
13709;BME280;54933;51.908;7.730;2023-06-10T08:54:59;101008.00;;;24.43;61.29
13709;BME280;54933;51.908;7.730;2023-06-10T08:57:25;101001.66;;;24.49;62.05
13709;BME280;54933;51.908;7.730;2023-06-10T08:59:53;101006.63;;;24.52;63.23
13709;BME280;54933;51.908;7.730;2023-06-10T09:02:19;100997.13;;;24.43;62.55
13709;BME280;54933;51.908;7.730;2023-06-10T09:04:46;100983.56;;;24.43;60.46
13709;BME280;54933;51.908;7.730;2023-06-10T09:07:12;100999.97;;;24.48;60.58
13709;BME280;54933;51.908;7.730;2023-06-10T09:09:39;100990.78;;;24.49;61.04
13709;BME280;54933;51.908;7.730;2023-06-10T09:12:07;100991.84;;;24.48;60.20
13709;BME280;54933;51.908;7.730;2023-06-10T09:14:32;100994.91;;;24.51;60.44
13709;BME280;54933;51.908;7.730;2023-06-10T09:16:57;100993.63;;;24.54;61.36
13709;BME280;54933;51.908;7.730;2023-06-10T09:19:25;100989.00;;;24.54;61.94
13709;BME280;54933;51.908;7.730;2023-06-10T09:21:50;100982.63;;;24.49;63.24
13709;BME280;54933;51.908;7.730;2023-06-10T09:24:15;100980.06;;;24.01;61.46
13709;BME280;54933;51.908;7.730;2023-06-10T09:26:42;100992.72;;;23.89;61.12
13709;BME280;54933;51.908;7.730;2023-06-10T09:29:08;100993.41;;;23.84;61.05
13709;BME280;54933;51.908;7.730;2023-06-10T09:31:35;100984.66;;;23.82;61.34
13709;BME280;54933;51.908;7.730;2023-06-10T09:34:15;100984.63;;;24.00;61.70
13709;BME280;54933;51.908;7.730;2023-06-10T09:36:42;100990.94;;;24.13;62.36
13709;BME280;54933;51.908;7.730;2023-06-10T09:39:16;100985.19;;;24.21;62.86
13709;BME280;54933;51.908;7.730;2023-06-10T09:41:42;100989.06;;;24.25;63.20
13709;BME280;54933;51.908;7.730;2023-06-10T09:44:19;100983.19;;;24.28;63.55
13709;BME280;54933;51.908;7.730;2023-06-10T09:46:46;100976.69;;;24.29;63.91
13709;BME280;54933;51.908;7.730;2023-06-10T09:49:12;100978.34;;;24.30;64.22
13709;BME280;54933;51.908;7.730;2023-06-10T09:51:37;100988.97;;;24.31;64.48
13709;BME280;54933;51.908;7.730;2023-06-10T09:54:03;100978.94;;;24.32;64.66
13709;BME280;54933;51.908;7.730;2023-06-10T09:56:35;100984.13;;;24.33;64.70
13709;BME280;54933;51.908;7.730;2023-06-10T09:59:02;100983.91;;;24.35;65.16
13709;BME280;54933;51.908;7.730;2023-06-10T10:01:30;100983.09;;;24.34;65.45
13709;BME280;54933;51.908;7.730;2023-06-10T10:03:55;100985.81;;;24.34;65.33
13709;BME280;54933;51.908;7.730;2023-06-10T10:06:21;100986.63;;;24.35;65.76
13709;BME280;54933;51.908;7.730;2023-06-10T10:08:48;100982.84;;;24.36;65.66
13709;BME280;54933;51.908;7.730;2023-06-10T10:11:16;100979.25;;;24.12;65.35
13709;BME280;54933;51.908;7.730;2023-06-10T10:13:45;100972.66;;;23.90;64.62
13709;BME280;54933;51.908;7.730;2023-06-10T10:16:15;100988.81;;;23.85;64.79
13709;BME280;54933;51.908;7.730;2023-06-10T10:18:52;100989.47;;;23.80;64.63
13709;BME280;54933;51.908;7.730;2023-06-10T10:21:22;100991.28;;;23.86;64.57
13709;BME280;54933;51.908;7.730;2023-06-10T10:23:53;100986.75;;;23.80;64.37
13709;BME280;54933;51.908;7.730;2023-06-10T10:26:21;100990.19;;;23.76;64.28
13709;BME280;54933;51.908;7.730;2023-06-10T10:29:20;100992.09;;;23.75;64.64
13709;BME280;54933;51.908;7.730;2023-06-10T10:31:50;100985.81;;;23.75;65.15
13709;BME280;54933;51.908;7.730;2023-06-10T10:34:21;100987.69;;;23.74;65.46
13709;BME280;54933;51.908;7.730;2023-06-10T10:36:50;100983.38;;;23.85;65.68
13709;BME280;54933;51.908;7.730;2023-06-10T10:39:15;100987.59;;;23.99;65.85
13709;BME280;54933;51.908;7.730;2023-06-10T10:41:42;100977.59;;;24.11;66.23
13709;BME280;54933;51.908;7.730;2023-06-10T10:44:08;100983.97;;;24.17;66.53
13709;BME280;54933;51.908;7.730;2023-06-10T10:46:45;100988.50;;;24.23;66.53
13709;BME280;54933;51.908;7.730;2023-06-10T10:49:14;100983.63;;;24.25;66.70
13709;BME280;54933;51.908;7.730;2023-06-10T10:51:57;100980.69;;;24.26;66.63
13709;BME280;54933;51.908;7.730;2023-06-10T10:54:34;100982.34;;;24.27;66.93
13709;BME280;54933;51.908;7.730;2023-06-10T10:59:58;100979.16;;;24.30;67.11
13709;BME280;54933;51.908;7.730;2023-06-10T11:02:41;100975.97;;;24.33;67.14
13709;BME280;54933;51.908;7.730;2023-06-10T11:05:09;100975.06;;;24.28;66.30
13709;BME280;54933;51.908;7.730;2023-06-10T11:07:35;100978.47;;;24.35;65.95
13709;BME280;54933;51.908;7.730;2023-06-10T11:10:10;100979.06;;;24.37;66.41
13709;BME280;54933;51.908;7.730;2023-06-10T11:12:41;100976.34;;;24.37;67.09
13709;BME280;54933;51.908;7.730;2023-06-10T11:15:06;100968.19;;;24.37;67.03
13709;BME280;54933;51.908;7.730;2023-06-10T11:17:32;100963.59;;;24.37;67.47
13709;BME280;54933;51.908;7.730;2023-06-10T11:19:58;100960.06;;;24.37;67.51
13709;BME280;54933;51.908;7.730;2023-06-10T11:22:24;100967.13;;;24.38;67.40
13709;BME280;54933;51.908;7.730;2023-06-10T11:24:50;100960.06;;;24.37;67.56
13709;BME280;54933;51.908;7.730;2023-06-10T11:27:22;100965.47;;;24.37;67.40
13709;BME280;54933;51.908;7.730;2023-06-10T11:32:30;100958.97;;;24.38;67.86
13709;BME280;54933;51.908;7.730;2023-06-10T11:34:57;100961.69;;;24.38;67.74
13709;BME280;54933;51.908;7.730;2023-06-10T11:37:22;100957.09;;;24.38;68.15
13709;BME280;54933;51.908;7.730;2023-06-10T11:39:51;100955.22;;;24.39;68.16
13709;BME280;54933;51.908;7.730;2023-06-10T11:42:18;100957.94;;;24.39;68.15
13709;BME280;54933;51.908;7.730;2023-06-10T11:44:53;100954.16;;;24.40;68.30
13709;BME280;54933;51.908;7.730;2023-06-10T11:47:19;100952.50;;;24.39;68.32
13709;BME280;54933;51.908;7.730;2023-06-10T11:49:46;100943.28;;;24.40;68.28
13709;BME280;54933;51.908;7.730;2023-06-10T11:52:11;100954.97;;;24.40;68.53
13709;BME280;54933;51.908;7.730;2023-06-10T11:54:38;100947.88;;;24.39;68.72
13709;BME280;54933;51.908;7.730;2023-06-10T11:57:03;100943.28;;;24.40;68.69
13709;BME280;54933;51.908;7.730;2023-06-10T11:59:29;100945.16;;;24.39;68.90
13709;BME280;54933;51.908;7.730;2023-06-10T12:01:55;100943.28;;;24.40;69.03
13709;BME280;54933;51.908;7.730;2023-06-10T12:04:21;100943.28;;;24.40;68.99
13709;BME280;54933;51.908;7.730;2023-06-10T12:06:47;100937.00;;;24.39;68.91
13709;BME280;54933;51.908;7.730;2023-06-10T12:09:24;100944.94;;;24.41;68.94
13709;BME280;54933;51.908;7.730;2023-06-10T12:12:10;100941.88;;;24.37;67.85
13709;BME280;54933;51.908;7.730;2023-06-10T12:14:59;100944.94;;;24.41;67.92
13709;BME280;54933;51.908;7.730;2023-06-10T12:19:55;100936.56;;;24.42;67.94
13709;BME280;54933;51.908;7.730;2023-06-10T12:22:20;100935.72;;;24.42;67.98
13709;BME280;54933;51.908;7.730;2023-06-10T12:25:02;100941.16;;;24.42;68.04
13709;BME280;54933;51.908;7.730;2023-06-10T12:27:32;100952.03;;;24.42;68.55
13709;BME280;54933;51.908;7.730;2023-06-10T12:29:59;100940.09;;;24.43;68.23
13709;BME280;54933;51.908;7.730;2023-06-10T12:32:43;100942.81;;;24.43;68.48
13709;BME280;54933;51.908;7.730;2023-06-10T12:35:09;100939.03;;;24.44;68.42
13709;BME280;54933;51.908;7.730;2023-06-10T12:37:35;100932.78;;;24.43;68.40
13709;BME280;54933;51.908;7.730;2023-06-10T12:40:03;100930.91;;;24.44;68.54
13709;BME280;54933;51.908;7.730;2023-06-10T12:42:32;100938.22;;;24.43;68.73
13709;BME280;54933;51.908;7.730;2023-06-10T12:44:59;100931.94;;;24.43;68.47
13709;BME280;54933;51.908;7.730;2023-06-10T12:47:34;100938.22;;;24.43;67.89
13709;BME280;54933;51.908;7.730;2023-06-10T12:50:01;100931.94;;;24.43;67.96
13709;BME280;54933;51.908;7.730;2023-06-10T12:52:35;100925.47;;;24.44;68.37
13709;BME280;54933;51.908;7.730;2023-06-10T12:55:00;100921.44;;;24.46;68.36
13709;BME280;54933;51.908;7.730;2023-06-10T12:57:26;100923.09;;;24.47;68.33
13709;BME280;54933;51.908;7.730;2023-06-10T12:59:51;100926.88;;;24.46;68.33
13709;BME280;54933;51.908;7.730;2023-06-10T13:02:22;100921.66;;;24.45;68.11